Time;durP1;ratioP1;P1;durP2;ratioP2;P2;SDS_P1;SDS_P2;PMS_P1;PMS_P2;Temp;Humidity;BMP_temperature;BMP_pressure;BME280_temperature;BME280_humidity;BME280_pressure;Samples;Min_cycle;Max_cycle;Signal;HPM_P1;HPM_P2
2023/08/23 00:00:10;;;;;;;;;11.25;11.25;;;;;29.75;40.46;99202.03;5078243;28;45408;-63
2023/08/23 00:02:36;;;;;;;;;9.75;9.75;;;;;29.64;40.37;99199.75;5077897;28;45625;-63
2023/08/23 00:05:01;;;;;;;;;13.00;10.25;;;;;29.55;40.43;99198.09;5077613;27;45482;-63
2023/08/23 00:07:27;;;;;;;;;11.50;10.75;;;;;29.49;40.60;99207.84;5077652;28;45446;-62
2023/08/23 00:09:52;;;;;;;;;13.25;11.00;;;;;29.45;40.71;99196.47;5077679;28;45297;-63
2023/08/23 00:12:18;;;;;;;;;12.50;11.25;;;;;29.43;40.75;99206.69;5077970;28;45945;-63
2023/08/23 00:14:43;;;;;;;;;11.75;10.50;;;;;29.41;40.00;99203.28;5077799;28;46284;-63
2023/08/23 00:17:09;;;;;;;;;13.25;13.00;;;;;29.40;40.32;99206.19;5077565;28;45353;-63
2023/08/23 00:19:34;;;;;;;;;12.50;11.00;;;;;29.39;40.89;99202.63;5077849;28;45442;-63
2023/08/23 00:21:59;;;;;;;;;11.25;11.25;;;;;29.39;40.77;99199.06;5076337;28;45382;-63
2023/08/23 00:24:25;;;;;;;;;13.00;13.00;;;;;29.35;40.98;99198.53;5077233;28;45481;-63
2023/08/23 00:26:50;;;;;;;;;10.00;10.00;;;;;29.30;40.82;99197.41;5077442;28;45447;-62
2023/08/23 00:29:15;;;;;;;;;10.75;10.75;;;;;29.24;41.75;99198.94;5077693;28;45613;-63
2023/08/23 00:31:41;;;;;;;;;5.00;5.00;;;;;29.20;41.35;99194.03;5076120;28;45814;-63
2023/08/23 00:34:06;;;;;;;;;9.50;8.25;;;;;29.17;41.16;99192.53;5077243;28;45544;-62
2023/08/23 00:36:32;;;;;;;;;11.00;11.00;;;;;29.14;41.45;99190.19;5077478;28;45385;-63
2023/08/23 00:38:58;;;;;;;;;11.50;11.50;;;;;29.13;41.49;99185.78;5077219;28;45531;-63
2023/08/23 00:41:23;;;;;;;;;13.00;12.00;;;;;29.11;41.28;99187.84;5076071;28;45412;-63
2023/08/23 00:43:49;;;;;;;;;8.00;8.00;;;;;29.11;41.47;99182.41;5077495;28;46395;-63
2023/08/23 00:46:15;;;;;;;;;13.75;10.25;;;;;29.08;42.19;99185.47;5077520;28;45439;-63
2023/08/23 00:48:43;;;;;;;;;11.50;11.50;;;;;29.05;42.94;99189.38;5075906;28;45391;-63
2023/08/23 00:51:09;;;;;;;;;13.00;11.75;;;;;29.02;42.67;99184.28;5077294;28;45352;-63
2023/08/23 00:53:36;;;;;;;;;12.50;11.00;;;;;28.98;43.59;99182.13;5076564;28;45422;-63
2023/08/23 00:56:02;;;;;;;;;14.50;14.00;;;;;28.94;43.28;99183.50;5077168;28;45415;-63
2023/08/23 00:58:28;;;;;;;;;11.00;10.75;;;;;28.87;43.17;99175.22;5077444;28;45408;-63
2023/08/23 01:00:55;;;;;;;;;14.00;12.50;;;;;28.82;43.45;99183.88;5076610;28;45485;-62
2023/08/23 01:03:20;;;;;;;;;10.50;10.50;;;;;28.76;43.29;99186.44;5076904;28;45463;-62
2023/08/23 01:06:19;;;;;;;;;12.50;12.50;;;;;28.70;42.92;99182.53;5076533;28;45346;-62
2023/08/23 01:09:05;;;;;;;;;12.00;12.00;;;;;28.68;43.35;99198.16;5076197;28;45452;-63
2023/08/23 01:11:49;;;;;;;;;10.75;10.75;;;;;28.65;43.22;99181.41;5044987;28;45523;-62
2023/08/23 01:14:38;;;;;;;;;9.00;9.00;;;;;28.64;42.73;99185.13;5075415;28;48028;-63
2023/08/23 01:17:07;;;;;;;;;13.20;12.60;;;;;28.64;43.11;99193.28;5076758;28;45448;-63
2023/08/23 01:19:44;;;;;;;;;11.00;10.25;;;;;28.63;43.04;99181.56;5076698;28;45388;-63
2023/08/23 01:22:12;;;;;;;;;11.75;11.75;;;;;28.62;43.62;99195.31;5076025;28;45399;-62
2023/08/23 01:24:38;;;;;;;;;12.50;12.50;;;;;28.56;44.06;99193.28;5075478;28;45575;-63
2023/08/23 01:27:04;;;;;;;;;13.75;12.00;;;;;28.49;43.56;99202.09;5076743;28;45389;-63
2023/08/23 01:29:29;;;;;;;;;11.50;11.50;;;;;28.46;43.71;99191.63;5076823;28;45577;-63
2023/08/23 01:32:03;;;;;;;;;12.25;12.00;;;;;28.44;43.57;99188.25;5076578;28;45360;-63
2023/08/23 01:34:37;;;;;;;;;14.75;14.00;;;;;28.42;43.89;99193.00;5076535;28;46578;-63
2023/08/23 01:37:05;;;;;;;;;14.50;13.50;;;;;28.38;44.06;99193.50;5076562;28;45372;-62
2023/08/23 01:39:32;;;;;;;;;14.00;14.00;;;;;28.38;43.60;99202.50;5074909;28;45460;-63
2023/08/23 01:41:59;;;;;;;;;14.75;14.00;;;;;28.37;44.08;99198.06;5074870;28;45948;-62
2023/08/23 01:44:25;;;;;;;;;14.75;13.75;;;;;28.36;44.35;99207.22;5076156;28;46474;-63
2023/08/23 01:46:50;;;;;;;;;16.00;13.00;;;;;28.36;44.00;99207.22;5076074;28;45356;-63
2023/08/23 01:49:16;;;;;;;;;14.00;12.00;;;;;28.34;44.53;99205.72;5076104;28;45721;-63
2023/08/23 01:51:41;;;;;;;;;9.75;9.50;;;;;28.33;44.54;99204.84;5075682;28;45487;-63
2023/08/23 01:54:06;;;;;;;;;9.25;9.25;;;;;28.33;44.49;99209.44;5074861;27;45515;-63
2023/08/23 01:56:32;;;;;;;;;14.75;12.00;;;;;28.30;44.43;99205.22;5075520;28;45462;-63
2023/08/23 01:58:57;;;;;;;;;10.75;10.75;;;;;28.28;44.21;99201.00;5075916;28;45359;-62
2023/08/23 02:01:23;;;;;;;;;12.25;11.25;;;;;28.25;44.51;99204.03;5075961;28;45526;-63
2023/08/23 02:03:48;;;;;;;;;11.25;10.50;;;;;28.21;44.88;99213.53;5073794;27;45428;-63
2023/08/23 02:06:13;;;;;;;;;13.75;13.00;;;;;28.17;45.08;99209.44;5075190;28;45461;-62
2023/08/23 02:08:39;;;;;;;;;12.75;10.50;;;;;28.12;45.04;99210.81;5075673;28;45682;-62
2023/08/23 02:11:04;;;;;;;;;15.00;10.75;;;;;28.11;45.06;99213.69;5075805;28;45447;-62
2023/08/23 02:13:29;;;;;;;;;12.00;12.00;;;;;28.09;45.33;99204.88;5074413;28;46618;-63
2023/08/23 02:15:55;;;;;;;;;14.00;10.50;;;;;28.08;45.04;99208.59;5075545;28;45444;-63
2023/08/23 02:18:21;;;;;;;;;12.75;12.75;;;;;28.07;44.93;99206.91;5075898;28;45388;-62
2023/08/23 02:20:54;;;;;;;;;10.00;9.00;;;;;28.06;45.21;99216.91;5075847;28;45586;-63
2023/08/23 02:23:20;;;;;;;;;13.25;13.25;;;;;28.06;45.30;99208.78;5075582;28;45445;-62
2023/08/23 02:25:45;;;;;;;;;13.25;11.00;;;;;28.05;45.12;99209.78;5075201;28;45361;-62
2023/08/23 02:28:10;;;;;;;;;15.25;12.25;;;;;28.05;44.96;99212.50;5075793;28;45557;-63
2023/08/23 02:30:36;;;;;;;;;16.50;14.50;;;;;28.03;45.28;99210.97;5074865;28;45377;-62
2023/08/23 02:33:01;;;;;;;;;15.25;15.25;;;;;28.03;45.28;99213.69;5074952;28;46307;-62
2023/08/23 02:35:27;;;;;;;;;12.00;11.50;;;;;28.03;45.34;99216.41;5075173;28;45467;-62
2023/08/23 02:37:53;;;;;;;;;15.50;14.50;;;;;28.02;45.63;99218.25;5073687;28;45334;-62
2023/08/23 02:40:18;;;;;;;;;13.75;13.25;;;;;28.02;45.88;99215.53;5074663;28;45322;-62
2023/08/23 02:42:44;;;;;;;;;13.25;12.75;;;;;28.00;45.47;99227.56;5074589;28;46292;-63
2023/08/23 02:45:09;;;;;;;;;16.50;16.00;;;;;28.00;45.59;99224.88;5074695;28;45521;-62
2023/08/23 02:47:35;;;;;;;;;11.50;11.50;;;;;28.00;45.61;99228.41;5075119;28;45426;-62
2023/08/23 02:50:00;;;;;;;;;14.25;14.25;;;;;27.98;45.74;99230.47;5075411;28;45564;-63
2023/08/23 02:52:25;;;;;;;;;10.25;10.25;;;;;27.98;46.10;99230.47;5075257;28;45415;-62
2023/08/23 02:54:51;;;;;;;;;14.25;13.00;;;;;27.97;46.41;99230.66;5074394;28;45357;-63
2023/08/23 02:57:16;;;;;;;;;11.25;11.00;;;;;27.97;47.01;99230.66;5074895;28;45639;-63
2023/08/23 02:59:41;;;;;;;;;15.00;14.00;;;;;27.96;46.80;99231.66;5073804;28;45928;-62
2023/08/23 03:02:07;;;;;;;;;15.50;13.75;;;;;27.92;46.87;99228.44;5074873;28;45658;-62
2023/08/23 03:04:32;;;;;;;;;14.00;13.00;;;;;27.91;46.41;99229.44;5074684;28;45412;-63
2023/08/23 03:06:57;;;;;;;;;11.75;11.75;;;;;27.90;46.08;99235.88;5075127;28;45684;-63
2023/08/23 03:09:23;;;;;;;;;14.75;12.75;;;;;27.87;45.71;99240.78;5074706;28;45473;-63
2023/08/23 03:11:48;;;;;;;;;15.00;14.25;;;;;27.85;45.90;99240.09;5075174;28;45432;-63
2023/08/23 03:14:13;;;;;;;;;15.25;14.00;;;;;27.81;46.57;99236.06;5075232;28;45463;-62
2023/08/23 03:16:39;;;;;;;;;14.25;14.25;;;;;27.77;46.06;99230.13;5075185;28;45514;-63
2023/08/23 03:19:04;;;;;;;;;12.50;12.50;;;;;27.73;45.85;99234.19;5074992;28;45405;-63
2023/08/23 03:21:29;;;;;;;;;11.75;11.75;;;;;27.72;45.60;99229.78;5074862;28;46439;-63
2023/08/23 03:23:55;;;;;;;;;11.50;11.25;;;;;27.68;45.63;99237.38;5074106;28;45520;-63
2023/08/23 03:26:20;;;;;;;;;16.00;15.00;;;;;27.67;45.66;99235.69;5075006;28;45415;-63
2023/08/23 03:28:46;;;;;;;;;17.00;15.25;;;;;27.63;45.70;99228.94;5074856;28;45349;-63
2023/08/23 03:31:11;;;;;;;;;16.50;14.75;;;;;27.61;45.57;99230.13;5074467;28;46555;-63
2023/08/23 03:33:36;;;;;;;;;15.50;13.50;;;;;27.59;46.00;99230.28;5074567;28;45676;-64
2023/08/23 03:36:02;;;;;;;;;12.50;11.00;;;;;27.58;46.27;99233.16;5072942;28;45424;-63
2023/08/23 03:38:28;;;;;;;;;10.25;9.50;;;;;27.56;45.80;99233.28;5074517;28;45352;-63
2023/08/23 03:40:53;;;;;;;;;11.75;11.25;;;;;27.54;46.15;99232.59;5072684;28;45416;-63
2023/08/23 03:43:18;;;;;;;;;14.50;12.25;;;;;27.53;45.95;99233.59;5074399;28;45516;-63
2023/08/23 03:45:48;;;;;;;;;14.75;14.00;;;;;27.52;45.93;99240.03;5074627;28;45456;-63
2023/08/23 03:48:14;;;;;;;;;14.50;13.00;;;;;27.51;46.18;99237.50;5074276;28;45495;-63
2023/08/23 03:50:40;;;;;;;;;15.75;15.00;;;;;27.51;45.95;99245.63;5074356;28;46519;-64
2023/08/23 03:53:05;;;;;;;;;12.50;12.50;;;;;27.49;45.67;99234.94;5074007;28;45345;-63
2023/08/23 03:55:31;;;;;;;;;12.75;12.25;;;;;27.49;46.33;99243.06;5073600;28;45324;-63
2023/08/23 03:57:56;;;;;;;;;15.75;14.25;;;;;27.49;47.18;99244.94;5073797;28;45584;-63
2023/08/23 04:00:22;;;;;;;;;16.00;14.00;;;;;27.47;47.37;99247.84;5073767;28;46538;-63
2023/08/23 04:02:47;;;;;;;;;14.00;14.00;;;;;27.45;47.69;99244.44;5074006;28;45386;-62
2023/08/23 04:05:13;;;;;;;;;15.00;14.00;;;;;27.44;48.00;99245.44;5073811;28;45407;-63
2023/08/23 04:07:39;;;;;;;;;11.75;10.75;;;;;27.41;48.10;99243.06;5073374;28;45442;-62
2023/08/23 04:10:05;;;;;;;;;15.00;14.00;;;;;27.38;48.38;99246.94;5073061;28;46396;-62
2023/08/23 04:12:31;;;;;;;;;16.25;15.25;;;;;27.36;48.65;99248.13;5073220;28;45379;-63
2023/08/23 04:14:56;;;;;;;;;12.50;11.00;;;;;27.33;48.43;99246.59;5073775;28;45378;-63
2023/08/23 04:17:23;;;;;;;;;13.50;13.00;;;;;27.30;48.68;99246.09;5073833;28;45415;-62
2023/08/23 04:19:49;;;;;;;;;11.25;11.25;;;;;27.26;48.20;99245.56;5072237;28;47981;-63
2023/08/23 04:22:14;;;;;;;;;12.25;12.25;;;;;27.26;48.17;99250.13;5072334;28;45403;-63
2023/08/23 04:24:40;;;;;;;;;13.50;13.50;;;;;27.22;47.94;99241.50;5071525;28;45899;-62
2023/08/23 04:27:05;;;;;;;;;16.25;15.25;;;;;27.22;48.17;99246.91;5073658;28;45562;-62
2023/08/23 04:29:30;;;;;;;;;16.25;14.25;;;;;27.19;48.25;99247.22;5073857;28;46426;-62
2023/08/23 04:31:56;;;;;;;;;14.50;13.25;;;;;27.19;48.36;99251.78;5074114;28;45451;-62
2023/08/23 04:34:21;;;;;;;;;14.00;13.75;;;;;27.16;47.95;99252.13;5072604;28;45368;-62
2023/08/23 04:36:47;;;;;;;;;14.50;13.25;;;;;27.14;48.25;99243.34;5073911;28;45970;-62
2023/08/23 04:39:12;;;;;;;;;14.50;11.00;;;;;27.13;48.45;99247.06;5075307;27;47631;-63
2023/08/23 04:41:37;;;;;;;;;14.50;13.50;;;;;27.12;48.34;99248.91;5076850;28;45348;-63
2023/08/23 04:44:03;;;;;;;;;13.25;12.00;;;;;27.13;48.17;99250.63;5075433;28;45420;-63
2023/08/23 04:46:28;;;;;;;;;12.25;11.50;;;;;27.11;48.56;99249.91;5076687;28;45391;-63
2023/08/23 04:48:54;;;;;;;;;18.50;17.00;;;;;27.08;49.35;99251.09;5076620;28;46066;-63
2023/08/23 04:51:19;;;;;;;;;14.50;13.75;;;;;27.06;49.58;99254.97;5075820;28;45405;-63
2023/08/23 04:53:44;;;;;;;;;14.50;13.25;;;;;27.04;49.42;99267.81;5076752;28;45332;-63
2023/08/23 04:56:10;;;;;;;;;14.00;13.00;;;;;27.02;49.61;99267.13;5077139;28;45453;-63
2023/08/23 04:58:35;;;;;;;;;14.50;14.00;;;;;27.00;50.24;99263.72;5077137;28;45929;-63
2023/08/23 05:01:03;;;;;;;;;14.50;14.50;;;;;26.98;50.05;99268.47;5076820;28;45513;-63
2023/08/23 05:03:32;;;;;;;;;18.00;16.00;;;;;26.97;49.93;99270.34;5076671;28;45445;-63
2023/08/23 05:05:59;;;;;;;;;21.00;17.00;;;;;26.96;49.26;99265.09;5076393;28;45415;-63
2023/08/23 05:08:25;;;;;;;;;16.25;16.25;;;;;26.92;49.20;99269.94;5074369;28;47614;-63
2023/08/23 05:10:55;;;;;;;;;15.75;14.50;;;;;26.93;48.68;99265.38;5075714;28;45314;-63
2023/08/23 05:13:21;;;;;;;;;18.50;16.25;;;;;26.91;48.70;99273.66;5077238;28;45450;-63
2023/08/23 05:15:54;;;;;;;;;20.25;19.00;;;;;26.94;48.67;99269.81;5076716;28;45507;-63
2023/08/23 05:18:19;;;;;;;;;21.50;18.75;;;;;26.94;48.74;99277.94;5074437;28;46849;-63
2023/08/23 05:20:46;;;;;;;;;21.25;20.00;;;;;26.95;48.32;99275.06;5076478;28;45458;-63
2023/08/23 05:23:11;;;;;;;;;18.25;15.25;;;;;26.96;48.90;99281.31;5076362;28;45401;-63
2023/08/23 05:25:37;;;;;;;;;16.50;16.50;;;;;26.96;48.78;99290.28;5075907;28;45350;-63
2023/08/23 05:28:02;;;;;;;;;15.00;15.00;;;;;26.97;48.81;99283.03;5074325;28;47008;-63
2023/08/23 05:30:28;;;;;;;;;17.25;17.25;;;;;26.98;49.15;99276.59;5076150;28;45392;-63
2023/08/23 05:32:53;;;;;;;;;18.25;16.00;;;;;27.00;49.12;99282.66;5076366;28;45415;-63
2023/08/23 05:35:18;;;;;;;;;20.25;16.00;;;;;27.01;48.99;99293.34;5075644;28;45401;-63
2023/08/23 05:37:44;;;;;;;;;18.25;16.00;;;;;27.02;49.31;99294.19;5075650;28;46287;-63
2023/08/23 05:40:09;;;;;;;;;15.50;15.50;;;;;27.00;49.07;99286.22;5075603;28;45433;-63
2023/08/23 05:42:35;;;;;;;;;17.75;15.75;;;;;27.03;48.93;99291.31;5075721;28;45267;-63
2023/08/23 05:45:00;;;;;;;;;15.75;15.75;;;;;27.03;48.71;99294.03;5075942;28;45610;-63
2023/08/23 05:47:26;;;;;;;;;22.25;20.75;;;;;27.06;48.99;99291.00;5075551;27;45523;-63
2023/08/23 05:49:52;;;;;;;;;21.75;20.00;;;;;27.08;49.36;99296.25;5075732;28;45479;-63
2023/08/23 05:52:17;;;;;;;;;19.00;18.00;;;;;27.09;49.01;99301.50;5076025;28;45411;-63
2023/08/23 05:54:43;;;;;;;;;20.00;16.50;;;;;27.12;48.88;99304.91;5075061;28;45461;-63
2023/08/23 05:57:08;;;;;;;;;18.00;16.25;;;;;27.14;49.37;99309.16;5075647;28;46054;-63
2023/08/23 05:59:34;;;;;;;;;16.25;16.25;;;;;27.13;49.67;99304.75;5075798;28;45439;-63
2023/08/23 06:01:59;;;;;;;;;17.50;17.25;;;;;27.15;48.51;99305.41;5075853;28;45407;-63
2023/08/23 06:04:25;;;;;;;;;20.00;18.50;;;;;27.15;49.17;99316.22;5073992;28;45484;-63
2023/08/23 06:06:50;;;;;;;;;16.75;16.50;;;;;27.18;49.58;99313.22;5075360;28;46154;-63
2023/08/23 06:09:17;;;;;;;;;16.25;16.25;;;;;27.23;49.47;99316.28;5075083;28;45805;-63
2023/08/23 06:11:42;;;;;;;;;21.50;18.25;;;;;27.26;49.60;99310.56;5075455;28;45467;-63
2023/08/23 06:14:22;;;;;;;;;24.25;22.50;;;;;27.29;49.46;99312.94;5075291;28;45354;-63
2023/08/23 06:16:49;;;;;;;;;20.00;17.25;;;;;27.32;49.64;99314.44;5073855;28;46883;-63
2023/08/23 06:19:14;;;;;;;;;15.75;15.75;;;;;27.36;49.32;99308.53;5090554;27;45522;-63
2023/08/23 06:21:41;;;;;;;;;16.25;15.50;;;;;27.40;49.78;99303.66;5075380;28;45611;-63
2023/08/23 06:24:07;;;;;;;;;15.50;15.25;;;;;27.42;49.62;99304.34;5074863;28;45503;-63
2023/08/23 06:26:32;;;;;;;;;17.75;16.25;;;;;27.46;50.01;99311.13;5074450;28;46091;-63
2023/08/23 06:28:58;;;;;;;;;17.50;16.50;;;;;27.48;50.13;99316.38;5074853;28;45362;-63
2023/08/23 06:31:23;;;;;;;;;20.50;18.00;;;;;27.52;49.72;99306.91;5074852;28;45356;-63
2023/08/23 06:33:48;;;;;;;;;18.00;17.25;;;;;27.53;50.05;99309.44;5072956;28;45332;-63
2023/08/23 06:36:14;;;;;;;;;16.25;15.25;;;;;27.58;49.89;99317.13;5056240;28;45584;-63
2023/08/23 06:38:42;;;;;;;;;20.25;18.50;;;;;27.60;49.71;99310.53;5074446;27;45399;-63
2023/08/23 06:41:08;;;;;;;;;19.75;18.25;;;;;27.62;49.77;99308.50;5074718;28;45457;-64
2023/08/23 06:43:33;;;;;;;;;18.00;15.50;;;;;27.67;49.24;99318.81;5074760;28;45352;-63
2023/08/23 06:46:00;;;;;;;;;18.75;18.00;;;;;27.71;49.38;99320.19;5074892;28;46467;-64
2023/08/23 06:48:26;;;;;;;;;19.25;19.25;;;;;27.74;49.22;99314.44;5074501;28;45399;-63
2023/08/23 06:50:51;;;;;;;;;19.75;19.50;;;;;27.79;48.90;99315.66;5075050;28;45507;-64
2023/08/23 06:53:17;;;;;;;;;18.75;18.75;;;;;27.84;48.92;99317.84;5074509;27;45452;-64
2023/08/23 06:55:42;;;;;;;;;17.00;17.00;;;;;27.87;48.85;99312.09;5074110;28;46052;-64
2023/08/23 06:58:07;;;;;;;;;19.25;18.25;;;;;27.90;48.61;99309.06;5074983;28;45290;-64
2023/08/23 07:00:34;;;;;;;;;21.75;20.25;;;;;27.92;49.05;99306.19;5074483;28;45356;-64
2023/08/23 07:03:00;;;;;;;;;18.75;17.75;;;;;27.96;48.82;99315.69;5074777;27;45425;-64
2023/08/23 07:05:25;;;;;;;;;18.00;17.00;;;;;28.00;48.82;99314.31;5074536;28;46486;-64
2023/08/23 07:07:51;;;;;;;;;18.50;16.75;;;;;28.05;49.35;99306.53;5090102;27;45405;-64
2023/08/23 07:10:16;;;;;;;;;22.75;20.75;;;;;28.11;48.61;99316.72;5074277;28;45419;-64
2023/08/23 07:12:41;;;;;;;;;19.00;17.75;;;;;28.17;48.32;99318.72;5074549;28;45466;-64
2023/08/23 07:15:07;;;;;;;;;17.25;17.25;;;;;28.22;48.09;99312.84;5090106;27;45375;-64
2023/08/23 07:17:34;;;;;;;;;19.25;18.75;;;;;28.26;48.09;99314.19;5074380;28;45468;-64
2023/08/23 07:20:00;;;;;;;;;19.75;18.25;;;;;28.28;48.40;99310.31;5074388;28;45409;-64
2023/08/23 07:22:25;;;;;;;;;25.75;22.75;;;;;28.34;48.36;99312.31;5074519;28;45364;-64
2023/08/23 07:24:50;;;;;;;;;18.00;17.75;;;;;28.38;47.82;99310.13;5074122;28;45391;-64
2023/08/23 07:27:16;;;;;;;;;18.50;16.50;;;;;28.42;48.30;99316.91;5074668;28;45409;-64
2023/08/23 07:29:41;;;;;;;;;18.25;18.00;;;;;28.45;48.43;99314.72;5090224;27;45393;-64
2023/08/23 07:32:06;;;;;;;;;17.25;16.25;;;;;28.48;47.98;99313.53;5074715;28;45531;-64
2023/08/23 07:34:33;;;;;;;;;18.00;17.25;;;;;28.55;48.16;99310.97;5074624;28;45593;-64
2023/08/23 07:36:58;;;;;;;;;19.75;19.75;;;;;28.60;47.81;99309.44;5074460;28;45328;-63
2023/08/23 07:39:25;;;;;;;;;23.25;19.75;;;;;28.65;47.63;99315.19;5073912;28;45397;-62
2023/08/23 07:41:50;;;;;;;;;16.75;16.75;;;;;28.71;47.50;99311.78;5074222;28;45343;-63
2023/08/23 07:44:15;;;;;;;;;20.00;17.25;;;;;28.77;47.35;99323.81;5074375;28;45653;-63
2023/08/23 07:46:41;;;;;;;;;22.00;20.00;;;;;28.82;47.45;99325.00;5073028;28;45370;-63
2023/08/23 07:49:06;;;;;;;;;22.00;19.75;;;;;28.90;47.43;99326.03;5074009;28;45376;-63
2023/08/23 07:51:32;;;;;;;;;19.75;17.50;;;;;28.95;47.15;99319.06;5074251;28;45403;-63
2023/08/23 07:53:57;;;;;;;;;21.25;17.75;;;;;28.99;47.15;99319.56;5073564;28;45554;-63
2023/08/23 07:56:23;;;;;;;;;19.00;19.00;;;;;29.05;46.78;99311.56;5074093;28;45502;-63
2023/08/23 07:58:48;;;;;;;;;20.25;19.00;;;;;29.12;46.86;99304.41;5074563;28;45392;-63
2023/08/23 08:01:14;;;;;;;;;18.00;17.00;;;;;29.19;46.83;99309.97;5072542;28;45392;-63
2023/08/23 08:03:39;;;;;;;;;16.75;16.50;;;;;29.25;46.77;99309.28;5072689;28;46450;-63
2023/08/23 08:06:05;;;;;;;;;18.75;18.00;;;;;29.33;46.19;99311.09;5073549;28;45434;-63
2023/08/23 08:08:31;;;;;;;;;17.25;15.50;;;;;29.39;46.16;99308.56;5073535;28;45388;-63
2023/08/23 08:10:57;;;;;;;;;20.25;20.00;;;;;29.45;45.53;99305.16;5074277;28;45421;-63
2023/08/23 08:13:22;;;;;;;;;18.00;16.75;;;;;29.52;45.81;99308.84;5093228;27;45391;-63
2023/08/23 08:15:48;;;;;;;;;26.25;23.25;;;;;29.60;45.53;99302.53;5077669;28;45419;-63
2023/08/23 08:18:13;;;;;;;;;20.75;16.00;;;;;29.67;44.85;99308.91;5093102;27;45341;-63
2023/08/23 08:20:38;;;;;;;;;18.25;18.25;;;;;29.74;44.61;99309.91;5076958;28;45391;-64
2023/08/23 08:23:04;;;;;;;;;16.75;16.75;;;;;29.80;45.01;99301.03;5076687;28;45436;-63
2023/08/23 08:25:29;;;;;;;;;20.50;18.25;;;;;29.84;44.40;99301.50;5076640;28;45396;-63
2023/08/23 08:27:55;;;;;;;;;16.75;16.50;;;;;29.90;44.24;99302.66;5077171;28;45447;-63
2023/08/23 08:30:20;;;;;;;;;19.25;16.50;;;;;29.95;44.31;99308.41;5077168;28;45302;-64
2023/08/23 08:32:46;;;;;;;;;22.25;20.25;;;;;30.00;44.28;99298.69;5074911;28;47558;-64
2023/08/23 08:35:11;;;;;;;;;19.50;17.00;;;;;30.05;44.52;99296.28;5076800;28;45427;-63
2023/08/23 08:37:37;;;;;;;;;17.75;17.75;;;;;30.11;44.49;99292.00;5076585;28;45399;-63
2023/08/23 08:40:03;;;;;;;;;18.25;18.25;;;;;30.16;43.39;99295.84;5076726;28;45534;-64
2023/08/23 08:42:29;;;;;;;;;18.00;17.75;;;;;30.23;43.12;99285.09;5076956;28;47452;-63
2023/08/23 08:44:56;;;;;;;;;16.75;16.00;;;;;30.31;43.33;99292.38;5077304;28;45495;-64
2023/08/23 08:47:24;;;;;;;;;18.50;18.00;;;;;30.37;42.77;99288.88;5077095;28;45485;-64
2023/08/23 08:49:50;;;;;;;;;19.25;16.75;;;;;30.44;42.97;99289.84;5076930;28;45348;-64
2023/08/23 08:52:19;;;;;;;;;19.75;18.50;;;;;30.52;43.20;99292.47;5076176;28;45834;-64
2023/08/23 08:54:47;;;;;;;;;22.25;19.50;;;;;30.59;42.10;99288.03;5075794;28;45431;-63
2023/08/23 08:57:14;;;;;;;;;19.75;18.75;;;;;30.65;42.11;99292.75;5076509;28;45376;-64
2023/08/23 08:59:44;;;;;;;;;15.00;15.00;;;;;30.71;42.28;99280.25;5076674;28;45547;-64
2023/08/23 09:02:13;;;;;;;;;16.25;14.25;;;;;30.77;41.97;99280.34;5077158;28;46494;-63
2023/08/23 09:04:39;;;;;;;;;21.00;19.25;;;;;30.82;41.82;99275.22;5076737;28;45424;-63
2023/08/23 09:07:05;;;;;;;;;22.25;19.25;;;;;30.87;42.26;99272.75;5076501;28;45361;-64
2023/08/23 09:09:30;;;;;;;;;17.25;16.75;;;;;30.94;42.04;99277.44;5076374;28;45290;-64
2023/08/23 09:11:56;;;;;;;;;20.75;19.50;;;;;30.98;42.06;99285.06;5076662;28;45641;-63
2023/08/23 09:14:21;;;;;;;;;18.75;17.75;;;;;31.04;41.37;99281.56;5076476;28;45421;-64
2023/08/23 09:16:47;;;;;;;;;16.50;16.50;;;;;31.11;41.38;99281.72;5076835;28;45360;-64
2023/08/23 09:19:13;;;;;;;;;19.00;18.50;;;;;31.17;41.15;99270.06;5076541;28;45589;-64
2023/08/23 09:21:47;;;;;;;;;21.50;19.25;;;;;31.23;40.89;99272.00;5076322;28;46363;-63
2023/08/23 09:24:12;;;;;;;;;18.50;17.75;;;;;31.28;41.07;99266.00;5076309;28;45679;-63
2023/08/23 09:26:39;;;;;;;;;19.50;18.50;;;;;31.32;40.69;99279.06;5076835;28;45468;-63
2023/08/23 09:29:05;;;;;;;;;19.25;18.25;;;;;31.37;40.46;99268.41;5076615;28;45367;-63
2023/08/23 09:31:30;;;;;;;;;22.25;18.50;;;;;31.41;40.91;99260.69;5076306;28;46262;-63
2023/08/23 09:33:56;;;;;;;;;22.25;20.25;;;;;31.45;40.75;99267.47;5076064;28;45391;-64
2023/08/23 09:36:41;;;;;;;;;22.00;17.25;;;;;31.49;40.93;99258.72;5076063;28;45424;-64
2023/08/23 09:39:11;;;;;;;;;14.00;11.25;;;;;31.53;40.96;99256.44;5075769;28;45494;-63
2023/08/23 09:41:41;;;;;;;;;18.50;18.50;;;;;31.55;41.11;99257.09;5076047;27;45411;-64
2023/08/23 09:44:07;;;;;;;;;20.50;19.50;;;;;31.56;40.93;99250.59;5076278;28;45470;-64
2023/08/23 09:46:39;;;;;;;;;20.50;20.50;;;;;31.60;41.13;99251.91;5076107;28;45318;-64
2023/08/23 09:49:06;;;;;;;;;19.50;19.25;;;;;31.63;41.02;99247.97;5075740;28;45406;-64
2023/08/23 09:51:37;;;;;;;;;20.75;18.25;;;;;31.65;40.34;99244.03;5075543;28;45373;-64
2023/08/23 09:54:26;;;;;;;;;21.00;20.25;;;;;31.71;40.67;99245.13;5074171;28;45433;-65
2023/08/23 09:56:52;;;;;;;;;22.00;17.75;;;;;31.76;40.80;99240.78;5076226;27;45418;-64
2023/08/23 09:59:18;;;;;;;;;23.00;22.50;;;;;31.84;40.62;99237.09;5075897;28;45491;-64
2023/08/23 10:01:44;;;;;;;;;18.25;18.25;;;;;31.89;40.53;99231.88;5075625;28;46535;-64
2023/08/23 10:04:10;;;;;;;;;18.25;16.75;;;;;31.97;40.02;99226.31;5075924;28;45412;-64
2023/08/23 10:06:36;;;;;;;;;19.00;18.50;;;;;32.05;40.13;99230.78;5074947;28;45484;-64
2023/08/23 10:09:03;;;;;;;;;22.25;21.75;;;;;32.10;39.93;99226.44;5074805;28;45507;-63
2023/08/23 10:11:30;;;;;;;;;19.00;18.25;;;;;32.15;39.80;99229.41;5075648;28;45515;-61
2023/08/23 10:13:58;;;;;;;;;18.50;18.50;;;;;32.20;39.72;99223.38;5075867;28;45430;-61
2023/08/23 10:16:26;;;;;;;;;19.25;18.25;;;;;32.23;39.93;99212.06;5075006;28;45424;-61
2023/08/23 10:18:53;;;;;;;;;19.00;18.00;;;;;32.27;39.98;99215.25;5075257;28;45349;-63
2023/08/23 10:21:18;;;;;;;;;20.00;20.00;;;;;32.30;40.48;99204.78;5075293;28;45699;-61
2023/08/23 10:23:44;;;;;;;;;19.00;17.50;;;;;32.36;39.21;99201.25;5074965;28;45435;-63
2023/08/23 10:26:21;;;;;;;;;19.75;19.00;;;;;32.39;39.32;99197.28;5075314;28;45446;-62
2023/08/23 10:28:50;;;;;;;;;20.50;20.50;;;;;32.43;39.02;99195.84;5073821;28;45491;-61
2023/08/23 10:31:23;;;;;;;;;18.75;18.75;;;;;32.48;38.59;99186.03;5075360;28;46669;-61
2023/08/23 10:33:56;;;;;;;;;17.25;17.25;;;;;32.57;39.42;99181.22;5074320;28;45399;-61
2023/08/23 10:36:28;;;;;;;;;13.00;13.00;;;;;32.62;38.81;99177.91;5074991;28;45431;-61
2023/08/23 10:38:55;;;;;;;;;18.25;18.25;;;;;32.67;38.88;99175.44;5074809;27;45518;-61
2023/08/23 10:41:22;;;;;;;;;21.75;20.50;;;;;32.72;38.34;99168.28;5074841;28;46641;-61
2023/08/23 10:43:48;;;;;;;;;16.25;15.25;;;;;32.79;38.04;99155.56;5074961;28;45468;-61
2023/08/23 10:46:17;;;;;;;;;16.50;15.75;;;;;32.88;38.18;99158.94;5074671;28;45606;-68
2023/08/23 10:48:44;;;;;;;;;16.75;16.00;;;;;32.99;38.09;99152.91;5075075;28;45502;-69
2023/08/23 10:51:10;;;;;;;;;16.25;13.00;;;;;33.12;37.59;99152.94;5074740;28;46179;-69
2023/08/23 10:53:35;;;;;;;;;14.00;13.00;;;;;33.24;36.91;99150.47;5072042;28;45734;-69
2023/08/23 10:56:02;;;;;;;;;14.25;14.25;;;;;33.33;37.04;99148.41;5075234;28;45365;-72
2023/08/23 10:58:27;;;;;;;;;16.50;15.75;;;;;33.43;36.60;99146.13;5075449;28;45431;-70
2023/08/23 11:00:53;;;;;;;;;14.25;14.25;;;;;33.53;36.56;99146.53;5075289;28;47159;-69
2023/08/23 11:03:20;;;;;;;;;17.00;16.25;;;;;33.62;35.91;99142.56;5075306;28;45409;-68
2023/08/23 11:05:45;;;;;;;;;17.00;16.00;;;;;33.72;35.51;99142.16;5075056;28;45444;-68
2023/08/23 11:08:11;;;;;;;;;18.00;17.25;;;;;33.80;35.44;99136.50;5074870;28;45575;-69
2023/08/23 11:10:37;;;;;;;;;16.00;15.25;;;;;33.87;35.44;99138.19;5074990;28;45484;-68
2023/08/23 11:13:03;;;;;;;;;15.75;15.00;;;;;33.96;35.47;99136.94;5074824;28;45380;-67